createdAt,value
2022-08-09T00:00:23.155Z,4.80
2022-08-09T00:02:51.877Z,4.53
2022-08-09T00:06:17.448Z,4.57
2022-08-09T00:08:12.925Z,4.30
2022-08-09T00:10:59.160Z,4.70
2022-08-09T00:13:31.548Z,4.40
2022-08-09T00:18:34.759Z,4.03
2022-08-09T00:21:05.378Z,4.72
2022-08-09T00:26:29.809Z,4.80
2022-08-09T00:29:03.687Z,4.55
2022-08-09T00:31:57.785Z,4.03
2022-08-09T00:34:32.550Z,4.72
2022-08-09T00:40:14.160Z,4.63
2022-08-09T00:44:11.610Z,4.55
2022-08-09T00:45:14.956Z,4.32
2022-08-09T00:47:45.432Z,4.07
2022-08-09T00:50:14.249Z,4.18
2022-08-09T00:52:43.004Z,4.47
2022-08-09T00:55:32.657Z,4.63
2022-08-09T00:57:59.566Z,5.35
2022-08-09T01:00:29.660Z,4.53
2022-08-09T01:03:09.533Z,4.47
2022-08-09T01:05:53.648Z,4.07
2022-08-09T01:08:32.928Z,4.38
2022-08-09T01:11:18.606Z,4.43
2022-08-09T01:13:53.218Z,5.03
2022-08-09T01:16:36.778Z,4.50
2022-08-09T01:19:40.204Z,4.20
2022-08-09T01:22:43.561Z,5.25
2022-08-09T01:25:37.294Z,4.68
2022-08-09T01:28:13.709Z,5.18
2022-08-09T01:30:52.626Z,4.25
2022-08-09T01:33:26.460Z,3.95
2022-08-09T01:36:03.055Z,4.60
2022-08-09T01:38:38.496Z,4.30
2022-08-09T01:41:13.204Z,4.95
2022-08-09T01:43:50.496Z,4.07
2022-08-09T01:46:24.737Z,4.60
2022-08-09T01:48:59.866Z,4.95
2022-08-09T01:51:32.198Z,4.55
2022-08-09T01:54:04.421Z,4.93
2022-08-09T01:56:35.729Z,4.88
2022-08-09T01:59:10.656Z,4.70
2022-08-09T02:02:00.054Z,4.63
2022-08-09T02:04:30.649Z,5.03
2022-08-09T02:07:18.488Z,4.50
2022-08-09T02:10:03.969Z,4.90
2022-08-09T02:12:34.925Z,5.20
2022-08-09T02:15:08.290Z,4.78
2022-08-09T02:18:00.799Z,4.75
2022-08-09T02:20:34.214Z,4.75
2022-08-09T02:23:07.355Z,4.90
2022-08-09T02:25:42.253Z,4.85
2022-08-09T02:28:19.765Z,4.72
2022-08-09T02:30:52.400Z,5.00
2022-08-09T02:33:38.384Z,4.90
2022-08-09T02:36:18.433Z,4.70
2022-08-09T02:38:50.733Z,4.45
2022-08-09T02:41:24.562Z,4.60
2022-08-09T02:43:55.734Z,4.53
2022-08-09T02:46:28.801Z,4.53
2022-08-09T02:49:02.537Z,4.60
2022-08-09T02:51:40.506Z,4.70
2022-08-09T02:54:13.805Z,5.10
2022-08-09T02:56:51.138Z,4.93
2022-08-09T02:59:26.139Z,5.10
2022-08-09T03:02:12.370Z,4.50
2022-08-09T03:04:47.051Z,5.13
2022-08-09T03:07:22.356Z,5.45
2022-08-09T03:09:54.187Z,5.15
2022-08-09T03:12:27.107Z,5.72
2022-08-09T03:14:57.779Z,4.80
2022-08-09T03:17:29.602Z,4.97
2022-08-09T03:20:03.343Z,5.43
2022-08-09T03:22:42.242Z,5.18
2022-08-09T03:25:26.087Z,4.75
2022-08-09T03:28:03.751Z,4.97
2022-08-09T03:30:33.952Z,5.45
2022-08-09T03:33:12.973Z,5.13
2022-08-09T03:36:14.021Z,5.28
2022-08-09T03:38:41.904Z,4.65
2022-08-09T03:41:15.554Z,5.88
2022-08-09T03:44:03.589Z,5.07
2022-08-09T03:46:34.045Z,4.47
2022-08-09T03:49:08.736Z,5.45
2022-08-09T03:51:43.664Z,5.57
2022-08-09T03:54:29.703Z,5.55
2022-08-09T03:57:01.473Z,5.57
2022-08-09T03:59:53.296Z,5.88
2022-08-09T04:02:26.158Z,5.60
2022-08-09T04:04:58.662Z,5.25
2022-08-09T04:07:47.083Z,4.70
2022-08-09T04:10:20.508Z,5.13
2022-08-09T04:12:52.482Z,5.45
2022-08-09T04:15:39.032Z,4.97
2022-08-09T04:18:16.453Z,4.85
2022-08-09T04:20:47.974Z,5.00
2022-08-09T04:23:17.865Z,5.13
2022-08-09T04:25:53.065Z,5.53
2022-08-09T04:28:34.293Z,5.25
2022-08-09T04:33:52.132Z,5.53
2022-08-09T04:36:25.376Z,5.20
2022-08-09T04:38:59.939Z,4.50
2022-08-09T04:41:33.248Z,4.68
2022-08-09T04:44:10.988Z,5.35
2022-08-09T04:46:58.834Z,4.88
2022-08-09T04:49:52.295Z,5.45
2022-08-09T04:52:32.564Z,5.22
2022-08-09T04:55:07.260Z,5.80
2022-08-09T04:57:58.828Z,4.97
2022-08-09T05:00:31.841Z,5.40
2022-08-09T05:03:13.341Z,5.97
2022-08-09T05:06:06.621Z,5.50
2022-08-09T05:08:37.358Z,6.25
2022-08-09T05:11:07.867Z,6.28
2022-08-09T05:13:38.757Z,6.13
2022-08-09T05:16:08.136Z,5.65
2022-08-09T05:18:58.187Z,6.45
2022-08-09T05:21:29.827Z,6.65
2022-08-09T05:24:02.053Z,5.82
2022-08-09T05:26:36.506Z,5.70
2022-08-09T05:29:17.368Z,5.93
2022-08-09T05:31:50.678Z,5.60
2022-08-09T05:34:26.061Z,6.13
2022-08-09T05:37:01.677Z,5.88
2022-08-09T05:39:36.265Z,5.53
2022-08-09T05:42:21.132Z,5.70
2022-08-09T05:44:51.999Z,5.75
2022-08-09T05:47:21.363Z,5.68
2022-08-09T05:50:23.641Z,6.32
2022-08-09T05:52:39.000Z,5.85
2022-08-09T05:55:18.100Z,5.72
2022-08-09T05:57:55.759Z,5.27
2022-08-09T06:00:26.703Z,5.43
2022-08-09T06:02:57.545Z,5.10
2022-08-09T06:05:31.137Z,5.72
2022-08-09T06:08:18.917Z,5.40
2022-08-09T06:10:49.854Z,5.03
2022-08-09T06:13:20.319Z,4.95
2022-08-09T06:15:51.576Z,5.40
2022-08-09T06:18:24.002Z,5.05
2022-08-09T06:20:58.606Z,4.72
2022-08-09T06:23:58.597Z,4.85
2022-08-09T06:26:20.406Z,5.28
2022-08-09T06:28:48.847Z,5.80
2022-08-09T06:31:19.586Z,5.15
2022-08-09T06:33:59.797Z,5.25
2022-08-09T06:36:30.008Z,5.18
2022-08-09T06:38:58.470Z,4.95
2022-08-09T06:42:06.392Z,5.50
2022-08-09T06:44:21.182Z,5.32
2022-08-09T06:46:51.044Z,5.30
2022-08-09T06:49:29.335Z,4.70
2022-08-09T06:52:15.631Z,5.30
2022-08-09T06:54:44.143Z,5.13
2022-08-09T06:57:14.083Z,5.00
2022-08-09T07:00:49.220Z,5.60
2022-08-09T07:02:32.169Z,4.90
2022-08-09T07:05:00.641Z,4.28
2022-08-09T07:07:59.402Z,4.82
2022-08-09T07:10:29.317Z,4.55
2022-08-09T07:12:59.802Z,4.32
2022-08-09T07:15:53.724Z,4.43
2022-08-09T07:18:16.790Z,4.47
2022-08-09T07:20:45.358Z,4.10
2022-08-09T07:23:18.780Z,3.95
2022-08-09T07:25:52.610Z,3.90
2022-08-09T07:28:34.686Z,4.68
2022-08-09T07:31:05.358Z,4.00
2022-08-09T07:33:53.041Z,4.25
2022-08-09T07:36:22.139Z,3.85
2022-08-09T07:39:00.372Z,4.32
2022-08-09T07:41:32.849Z,4.05
2022-08-09T07:44:08.049Z,4.10
2022-08-09T07:46:39.959Z,4.10
2022-08-09T07:49:15.367Z,3.78
2022-08-09T07:52:05.447Z,3.58
2022-08-09T07:54:32.030Z,3.75
2022-08-09T07:57:00.644Z,3.60
2022-08-09T07:59:34.334Z,3.70
2022-08-09T08:02:19.381Z,3.50
2022-08-09T08:04:49.226Z,4.10
2022-08-09T08:08:42.424Z,4.20
2022-08-09T08:10:11.362Z,3.70
2022-08-09T08:12:43.311Z,4.20
2022-08-09T08:15:17.833Z,3.75
2022-08-09T08:20:29.096Z,3.42
2022-08-09T08:23:06.536Z,3.70
2022-08-09T08:25:49.771Z,3.30
2022-08-09T08:28:26.098Z,3.28
2022-08-09T08:31:13.915Z,3.75
2022-08-09T08:33:52.468Z,3.88
2022-08-09T08:36:29.175Z,3.50
2022-08-09T08:38:59.636Z,3.40
2022-08-09T08:41:42.224Z,3.67
2022-08-09T08:44:23.077Z,3.75
2022-08-09T08:47:02.059Z,3.20
2022-08-09T08:49:47.196Z,3.38
2022-08-09T08:55:07.664Z,2.92
2022-08-09T08:57:37.535Z,3.63
2022-08-09T09:00:17.263Z,3.70
2022-08-09T09:03:04.486Z,3.17
2022-08-09T09:06:00.348Z,3.45
2022-08-09T09:08:37.906Z,3.53
2022-08-09T09:11:17.188Z,3.10
2022-08-09T09:13:56.182Z,4.30
2022-08-09T09:16:30.887Z,2.78
2022-08-09T09:19:36.811Z,3.15
2022-08-09T09:22:04.014Z,3.88
2022-08-09T09:24:37.241Z,3.78
2022-08-09T09:27:08.478Z,3.17
2022-08-09T09:30:14.151Z,2.95
2022-08-09T09:32:34.754Z,3.40
2022-08-09T09:35:09.250Z,3.38
2022-08-09T09:37:40.489Z,3.60
2022-08-09T09:40:11.628Z,3.85
2022-08-09T09:42:46.112Z,3.50
2022-08-09T09:45:25.604Z,2.85
2022-08-09T09:47:58.264Z,2.83
2022-08-09T09:50:49.559Z,3.35
2022-08-09T09:53:43.863Z,3.15
2022-08-09T09:56:20.100Z,3.40
2022-08-09T09:58:58.490Z,3.10
2022-08-09T10:01:31.432Z,3.50
2022-08-09T10:04:09.677Z,3.15
2022-08-09T10:06:43.489Z,3.08
2022-08-09T10:09:22.383Z,2.92
2022-08-09T10:12:12.406Z,3.40
2022-08-09T10:14:48.763Z,2.97
2022-08-09T10:17:50.945Z,3.22
2022-08-09T10:20:32.302Z,3.40
2022-08-09T10:23:17.153Z,3.15
2022-08-09T10:26:07.217Z,3.50
2022-08-09T10:28:39.025Z,3.58
2022-08-09T10:34:09.993Z,3.22
2022-08-09T10:36:50.100Z,3.10
2022-08-09T10:39:23.375Z,3.40
2022-08-09T10:41:56.610Z,3.00
2022-08-09T10:44:30.505Z,3.38
2022-08-09T10:48:16.848Z,3.63
2022-08-09T10:50:20.978Z,4.05
2022-08-09T10:53:10.125Z,4.07
2022-08-09T10:55:55.057Z,3.15
2022-08-09T10:58:35.072Z,3.35
2022-08-09T11:03:05.619Z,3.20
2022-08-09T11:04:19.914Z,3.05
2022-08-09T11:07:57.563Z,3.15
2022-08-09T11:10:17.743Z,3.25
2022-08-09T11:13:49.093Z,3.53
2022-08-09T11:16:37.325Z,4.18
2022-08-09T11:19:09.897Z,3.08
2022-08-09T11:22:10.249Z,3.80
2022-08-09T11:25:05.364Z,3.42
2022-08-09T11:28:04.929Z,4.05
2022-08-09T11:30:37.553Z,3.53
2022-08-09T11:33:12.838Z,3.53
2022-08-09T11:35:50.233Z,3.60
2022-08-09T11:38:32.767Z,4.00
2022-08-09T11:41:05.300Z,3.40
2022-08-09T11:43:41.526Z,14.95
2022-08-09T11:46:11.063Z,3.00
2022-08-09T11:48:49.559Z,2.97
2022-08-09T11:52:48.480Z,3.42
2022-08-09T11:54:27.631Z,3.67
2022-08-09T11:57:47.757Z,3.50
2022-08-09T12:00:27.483Z,3.17
2022-08-09T12:02:58.668Z,3.13
2022-08-09T12:05:42.099Z,3.38
2022-08-09T12:08:21.726Z,2.70
2022-08-09T12:10:52.843Z,3.42
2022-08-09T12:14:08.992Z,2.97
2022-08-09T12:16:29.221Z,3.40
2022-08-09T12:19:09.514Z,2.53
2022-08-09T12:21:50.385Z,3.22
2022-08-09T12:24:23.960Z,3.10
2022-08-09T12:28:59.123Z,3.17
2022-08-09T12:30:04.071Z,3.37
2022-08-09T12:32:44.952Z,3.00
2022-08-09T12:37:53.887Z,3.30
2022-08-09T12:40:26.789Z,2.95
2022-08-09T12:42:57.019Z,3.38
2022-08-09T12:45:33.671Z,3.20
2022-08-09T12:48:19.944Z,3.17
2022-08-09T12:50:59.606Z,3.60
2022-08-09T12:53:37.132Z,3.17
2022-08-09T12:56:43.964Z,3.50
2022-08-09T12:59:10.412Z,3.65
2022-08-09T13:01:46.876Z,3.13
2022-08-09T13:04:35.799Z,3.15
2022-08-09T13:07:14.720Z,3.22
2022-08-09T13:09:52.595Z,3.00
2022-08-09T13:12:24.454Z,3.15
2022-08-09T13:14:55.039Z,2.95
2022-08-09T13:17:58.682Z,2.95
2022-08-09T13:20:50.025Z,2.90
2022-08-09T13:24:07.269Z,2.42
2022-08-09T13:26:11.880Z,3.03
2022-08-09T13:28:40.050Z,3.60
2022-08-09T13:32:15.525Z,3.08
2022-08-09T13:34:00.302Z,3.55
2022-08-09T13:36:40.706Z,2.47
2022-08-09T13:41:50.972Z,2.80
2022-08-09T13:42:03.191Z,2.92
2022-08-09T13:44:32.890Z,3.03
2022-08-09T13:47:29.404Z,2.95
2022-08-09T13:49:57.283Z,3.00
2022-08-09T13:52:26.894Z,2.83
2022-08-09T13:54:59.704Z,2.72
2022-08-09T13:57:40.202Z,2.90
2022-08-09T14:00:12.972Z,2.70
2022-08-09T14:03:02.118Z,2.90
2022-08-09T14:05:56.640Z,2.75
2022-08-09T14:08:21.541Z,2.72
2022-08-09T14:10:52.956Z,2.65
2022-08-09T14:13:28.390Z,3.05
2022-08-09T14:16:14.504Z,3.10
2022-08-09T14:18:50.328Z,2.65
2022-08-09T14:21:20.849Z,3.08
2022-08-09T14:23:56.202Z,2.80
2022-08-09T14:26:30.476Z,3.08
2022-08-09T14:29:01.884Z,3.50
2022-08-09T14:31:35.760Z,2.88
2022-08-09T14:34:31.609Z,2.00
2022-08-09T14:37:01.966Z,2.50
2022-08-09T14:39:40.239Z,3.08
2022-08-09T14:42:30.530Z,3.40
2022-08-09T14:46:54.808Z,2.80
2022-08-09T14:48:00.267Z,2.33
2022-08-09T14:50:32.469Z,2.70
2022-08-09T14:53:01.561Z,2.28
2022-08-09T14:55:32.252Z,2.53
2022-08-09T14:58:04.643Z,2.65
2022-08-09T15:00:35.211Z,2.70
2022-08-09T15:03:06.973Z,2.75
2022-08-09T15:05:36.498Z,2.47
2022-08-09T15:08:05.455Z,2.45
2022-08-09T15:10:35.643Z,2.60
2022-08-09T15:13:08.961Z,2.70
2022-08-09T15:15:39.330Z,2.13
2022-08-09T15:18:14.085Z,2.45
2022-08-09T15:21:56.704Z,1.98
2022-08-09T15:23:56.183Z,2.28
2022-08-09T15:26:30.724Z,2.83
2022-08-09T15:29:04.566Z,2.28
2022-08-09T15:31:41.367Z,2.22
2022-08-09T15:34:32.394Z,2.35
2022-08-09T15:37:04.097Z,3.00
2022-08-09T15:39:43.818Z,2.70
2022-08-09T15:42:30.173Z,2.70
2022-08-09T15:45:03.557Z,2.50
2022-08-09T15:47:51.515Z,3.92
2022-08-09T15:50:21.907Z,2.20
2022-08-09T15:53:06.689Z,2.78
2022-08-09T15:56:11.031Z,2.83
2022-08-09T15:58:33.518Z,2.80
2022-08-09T16:01:06.717Z,3.13
2022-08-09T16:03:38.048Z,2.50
2022-08-09T16:06:07.879Z,2.83
2022-08-09T16:08:56.749Z,3.47
2022-08-09T16:11:30.750Z,3.10
2022-08-09T16:14:05.868Z,2.30
2022-08-09T16:16:37.788Z,2.50
2022-08-09T16:19:09.235Z,2.72
2022-08-09T16:21:38.098Z,3.00
2022-08-09T16:24:08.848Z,2.63
2022-08-09T16:26:56.762Z,2.40
2022-08-09T16:29:37.830Z,2.70
2022-08-09T16:32:33.229Z,2.70
2022-08-09T16:35:03.230Z,2.72
2022-08-09T16:37:54.864Z,2.65
2022-08-09T16:40:40.069Z,2.95
2022-08-09T16:43:09.109Z,3.22
2022-08-09T16:45:44.297Z,2.20
2022-08-09T16:48:40.194Z,3.33
2022-08-09T16:51:07.402Z,4.70
2022-08-09T16:53:56.345Z,4.18
2022-08-09T16:56:26.520Z,3.88
2022-08-09T16:58:59.426Z,3.22
2022-08-09T17:01:33.941Z,3.28
2022-08-09T17:04:06.568Z,2.55
2022-08-09T17:07:04.715Z,2.88
2022-08-09T17:09:45.708Z,2.70
2022-08-09T17:12:12.245Z,2.25
2022-08-09T17:14:47.733Z,2.72
2022-08-09T17:17:27.077Z,2.45
2022-08-09T17:20:29.771Z,3.00
2022-08-09T17:22:50.219Z,2.97
2022-08-09T17:25:20.135Z,2.83
2022-08-09T17:27:54.479Z,2.85
2022-08-09T17:33:00.638Z,3.85
2022-08-09T17:35:41.105Z,3.55
2022-08-09T17:38:32.253Z,3.42
2022-08-09T17:40:59.837Z,3.25
2022-08-09T17:43:33.635Z,4.05
2022-08-09T17:46:06.091Z,2.85
2022-08-09T17:48:38.573Z,3.37
2022-08-09T17:51:19.259Z,2.50
2022-08-09T17:53:52.876Z,2.55
2022-08-09T17:56:27.680Z,2.75
2022-08-09T17:58:58.902Z,2.97
2022-08-09T18:02:03.459Z,2.33
2022-08-09T18:04:16.705Z,3.60
2022-08-09T18:06:54.617Z,2.63
2022-08-09T18:09:25.124Z,3.08
2022-08-09T18:12:05.903Z,2.72
2022-08-09T18:14:49.870Z,2.73
2022-08-09T18:17:27.333Z,3.08
2022-08-09T18:20:59.656Z,3.15
2022-08-09T18:23:05.663Z,3.00
2022-08-09T18:25:53.031Z,3.67
2022-08-09T18:30:38.042Z,3.55
2022-08-09T18:31:24.673Z,3.30
2022-08-09T18:33:53.959Z,2.42
2022-08-09T18:36:25.570Z,3.78
2022-08-09T18:39:02.744Z,3.30
2022-08-09T18:41:35.064Z,3.13
2022-08-09T18:44:13.453Z,3.30
2022-08-09T18:46:46.279Z,2.53
2022-08-09T18:49:32.379Z,2.60
2022-08-09T18:52:10.099Z,3.28
2022-08-09T18:54:47.278Z,3.20
2022-08-09T18:57:22.168Z,3.15
2022-08-09T18:59:55.409Z,3.47
2022-08-09T19:02:30.497Z,2.90
2022-08-09T19:08:03.791Z,3.25
2022-08-09T19:10:39.638Z,3.00
2022-08-09T19:13:22.328Z,2.90
2022-08-09T19:15:59.573Z,3.08
2022-08-09T19:18:33.524Z,3.60
2022-08-09T19:21:09.785Z,2.88
2022-08-09T19:26:32.614Z,3.45
2022-08-09T19:29:09.653Z,3.70
2022-08-09T19:31:49.506Z,3.90
2022-08-09T19:34:22.758Z,3.60
2022-08-09T19:39:29.301Z,3.53
2022-08-09T19:42:15.105Z,3.33
2022-08-09T19:44:50.472Z,3.85
2022-08-09T19:47:23.621Z,3.58
2022-08-09T19:50:07.061Z,4.07
2022-08-09T19:52:49.703Z,2.72
2022-08-09T19:55:25.749Z,3.88
2022-08-09T19:58:00.662Z,4.40
2022-08-09T20:00:29.012Z,3.35
2022-08-09T20:04:12.726Z,3.40
2022-08-09T20:05:46.718Z,3.45
2022-08-09T20:08:24.699Z,3.78
2022-08-09T20:13:37.318Z,3.22
2022-08-09T20:16:36.974Z,3.15
2022-08-09T20:19:42.809Z,2.95
2022-08-09T20:21:56.344Z,3.20
2022-08-09T20:24:29.865Z,3.07
2022-08-09T20:27:07.959Z,3.20
2022-08-09T20:29:39.372Z,3.60
2022-08-09T20:32:28.858Z,4.07
2022-08-09T20:34:59.580Z,2.58
2022-08-09T20:37:37.360Z,3.15
2022-08-09T20:40:26.589Z,3.03
2022-08-09T20:43:00.131Z,3.70
2022-08-09T20:46:01.813Z,2.83
2022-08-09T20:48:35.381Z,2.67
2022-08-09T20:51:03.566Z,2.58
2022-08-09T20:53:36.565Z,3.00
2022-08-09T20:56:08.850Z,3.50
2022-08-09T20:58:38.107Z,3.60
2022-08-09T21:01:32.370Z,2.90
2022-08-09T21:04:07.938Z,2.88
2022-08-09T21:06:45.950Z,3.08
2022-08-09T21:09:32.895Z,2.70
2022-08-09T21:14:38.286Z,3.08
2022-08-09T21:18:22.312Z,2.70
2022-08-09T21:20:17.072Z,2.88
2022-08-09T21:22:52.454Z,2.50
2022-08-09T21:25:39.651Z,2.20
2022-08-09T21:28:15.977Z,2.88
2022-08-09T21:30:44.885Z,2.93
2022-08-09T21:33:16.382Z,2.40
2022-08-09T21:35:51.390Z,2.90
2022-08-09T21:38:31.030Z,3.30
2022-08-09T21:40:59.989Z,2.95
2022-08-09T21:43:56.934Z,2.72
2022-08-09T21:46:16.338Z,2.90
2022-08-09T21:48:49.281Z,2.50
2022-08-09T21:51:24.308Z,2.60
2022-08-09T21:54:03.851Z,2.53
2022-08-09T21:56:43.427Z,3.40
2022-08-09T21:59:20.186Z,2.95
2022-08-09T22:02:00.411Z,3.40
2022-08-09T22:04:57.941Z,3.50
2022-08-09T22:07:35.358Z,4.13
2022-08-09T22:10:09.987Z,3.45
2022-08-09T22:12:38.924Z,4.05
2022-08-09T22:15:16.498Z,3.40
2022-08-09T22:17:46.461Z,4.07
2022-08-09T22:20:21.928Z,4.50
2022-08-09T22:22:55.828Z,3.97
2022-08-09T22:26:08.690Z,4.20
2022-08-09T22:28:11.860Z,3.92
2022-08-09T22:30:41.911Z,3.20
2022-08-09T22:33:17.342Z,3.22
